METAR AND TAF INFORMATION
METAR FOR LTBA
ADDS - METARS form results

(2311 UTC 17 February 2020)
Data provider http://aviationweather.gov/metar/data/
 
METAR text: LTBA 172250Z VRB02KT CAVOK 04/00 Q1024 NOSIG RMK RWY17L 00000KT RWY05 05004KT RWY23 VRB02KT
Conditions at: LTBA (ISTANBUL/ATATURK, TR) observed 2250 UTC 17 February 2020
Temperature: 4.0°C (39°F)
Dewpoint: 0.0°C (32°F) [RH = 75%]
Pressure (altimeter): 30.24 inches Hg (1024.0 mb)
Winds: variable direction winds at 2 MPH (2 knots; 1.0 m/s)
Visibility: 6 or more miles (10+ km)
Ceiling: ceiling and visibility are OK
Clouds: unknown
Weather: no significant weather observed at this time

METAR text: LTBA 172220Z VRB02KT CAVOK 06/01 Q1024 NOSIG RMK RWY17L VRB01KT RWY05 07003KT RWY23 VRB03KT
Conditions at: LTBA (ISTANBUL/ATATURK, TR) observed 2220 UTC 17 February 2020
Temperature: 6.0°C (43°F)
Dewpoint: 1.0°C (34°F) [RH = 70%]
Pressure (altimeter): 30.24 inches Hg (1024.0 mb)
Winds: variable direction winds at 2 MPH (2 knots; 1.0 m/s)
Visibility: 6 or more miles (10+ km)
Ceiling: ceiling and visibility are OK
Clouds: unknown
Weather: no significant weather observed at this time

Forecast for: LTBA (ISTANBUL/ATATURK, TR)
Text: TAF LTBA 172240Z 1800/1906 03008KT CAVOK
Forecast period: 0000 UTC 18 February 2020 to 0600 UTC 19 February 2020
Forecast type: FROM: standard forecast or significant change
Winds: from the NNE (30 degrees) at 9 MPH (8 knots; 4.1 m/s)
Visibility: 6 or more miles 10+ km)
Ceiling: unknown
Clouds: missing
Weather: NSW  (no significant weather)
Text: PROB40
Forecast period: 0300 to 0700 UTC 18 February 2020
Forecast type: TEMPORARY: The following changes expected for less than half the time period
Visibility: 2.49 miles (4.01 km)
Ceiling: at least 12,000 feet AGL
Clouds: scattered clouds at 1000 feet AGL
Weather: BR  (mist)

 AIRPORT MAP

 RUNWAY INFORMATION
Runway 05 Runway length 8530 ft Runway width 197 ft
Runway elevation 93 ft Runway displaced threshold 492 ft Runway heading 59
Runway 23 Runway length 8530 ft Runway width 197 ft
Runway elevation 90 ft Runway displaced threshold 0 ft Runway heading 239
Runway 17L Runway length 9843 ft Runway width 148 ft
Runway elevation 157 ft Runway displaced threshold 0 ft Runway heading 178
Runway 35R Runway length 9843 ft Runway width 148 ft
Runway elevation 100 ft Runway displaced threshold 0 ft Runway heading 358
Runway 17R Runway length 9843 ft Runway width 148 ft
Runway elevation 163 ft Runway displaced threshold 0 ft Runway heading 178
Runway 35L Runway length 9843 ft Runway width 148 ft
Runway elevation 102 ft Runway displaced threshold 0 ft Runway heading 358

 AIRPORT FREQUENCIES
Type APP Name YESILKOY A Frequency 120.5 MHZ
Type ATIS Name ATIS Frequency 128.2 MHZ
Type CLD Name YESILKOY D Frequency 121.7 MHZ
Type GND Name YESILKOY G Frequency 121.8 MHZ
Type RMP Name YESILKOY R Frequency 121.9 MHZ
Type TWR Name YESILKOY T Frequency 118.1 MHZ

 AIRPORT NEAR NAVIGATION AIDS
Type VORTAC Name Istanbul Frequency 112500 KHZ